sensor_id;sensor_type;location;lat;lon;timestamp;pressure;altitude;pressure_sealevel;temperature;humidity
50650;BME280;36621;60.058;30.346;2023-06-14T05:35:06;101705.97;;;30.43;24.91
50650;BME280;36621;60.058;30.346;2023-06-14T05:42:42;101749.38;;;31.21;24.27
50650;BME280;36621;60.058;30.346;2023-06-14T05:50:15;101766.69;;;33.20;22.18
50650;BME280;36621;60.058;30.346;2023-06-14T05:57:47;101750.31;;;34.11;21.16
50650;BME280;36621;60.058;30.346;2023-06-14T06:05:20;101752.38;;;34.77;20.08
50650;BME280;36621;60.058;30.346;2023-06-14T15:28:09;101653.13;;;24.94;29.23
50650;BME280;36621;60.058;30.346;2023-06-14T15:35:44;101603.69;;;24.24;29.70
50650;BME280;36621;60.058;30.346;2023-06-14T15:43:50;101603.59;;;24.45;29.67
50650;BME280;36621;60.058;30.346;2023-06-14T15:51:39;101486.50;;;23.32;30.22
50650;BME280;36621;60.058;30.346;2023-06-14T15:59:36;101697.69;;;24.44;30.35
50650;BME280;36621;60.058;30.346;2023-06-14T16:07:08;101683.69;;;23.78;31.26
50650;BME280;36621;60.058;30.346;2023-06-14T16:14:41;101688.16;;;23.70;31.34
50650;BME280;36621;60.058;30.346;2023-06-14T16:22:13;101699.44;;;23.73;30.96
50650;BME280;36621;60.058;30.346;2023-06-14T16:29:45;101698.34;;;23.66;30.63
50650;BME280;36621;60.058;30.346;2023-06-14T16:53:01;101633.59;;;22.79;30.49
50650;BME280;36621;60.058;30.346;2023-06-14T17:01:04;101505.31;;;22.63;29.46
50650;BME280;36621;60.058;30.346;2023-06-14T17:08:55;101703.00;;;24.04;28.71
50650;BME280;36621;60.058;30.346;2023-06-14T17:16:28;101663.94;;;23.40;28.44
50650;BME280;36621;60.058;30.346;2023-06-14T17:24:02;101627.97;;;23.27;27.83
50650;BME280;36621;60.058;30.346;2023-06-14T17:31:53;101606.28;;;23.32;27.58
50650;BME280;36621;60.058;30.346;2023-06-14T17:40:00;101709.03;;;23.34;27.61
50650;BME280;36621;60.058;30.346;2023-06-14T17:47:33;101679.63;;;22.77;28.17
50650;BME280;36621;60.058;30.346;2023-06-14T17:55:37;101621.44;;;22.54;28.03
50650;BME280;36621;60.058;30.346;2023-06-14T18:03:49;101691.75;;;22.72;27.71
50650;BME280;36621;60.058;30.346;2023-06-14T18:28:52;101716.53;;;22.30;27.84
50650;BME280;36621;60.058;30.346;2023-06-14T18:36:24;101700.53;;;22.09;28.31
50650;BME280;36621;60.058;30.346;2023-06-14T18:44:16;101725.56;;;22.35;27.49
50650;BME280;36621;60.058;30.346;2023-06-14T18:51:48;101723.56;;;22.01;27.49
50650;BME280;36621;60.058;30.346;2023-06-14T18:59:39;101721.28;;;22.20;27.19
50650;BME280;36621;60.058;30.346;2023-06-14T19:07:14;101735.66;;;21.70;27.86
50650;BME280;36621;60.058;30.346;2023-06-14T19:15:06;101736.47;;;21.71;28.37
50650;BME280;36621;60.058;30.346;2023-06-14T19:22:38;101717.47;;;21.06;29.15
50650;BME280;36621;60.058;30.346;2023-06-14T19:30:11;101734.94;;;21.07;28.45
50650;BME280;36621;60.058;30.346;2023-06-14T19:37:43;101739.94;;;20.87;29.63
50650;BME280;36621;60.058;30.346;2023-06-14T19:53:40;101754.47;;;20.93;28.78
50650;BME280;36621;60.058;30.346;2023-06-14T20:01:12;101755.69;;;20.55;31.01
50650;BME280;36621;60.058;30.346;2023-06-14T20:08:45;101767.81;;;20.37;30.92
50650;BME280;36621;60.058;30.346;2023-06-14T20:16:35;101755.31;;;20.48;30.95
50650;BME280;36621;60.058;30.346;2023-06-14T20:24:08;101702.78;;;19.70;31.14
50650;BME280;36621;60.058;30.346;2023-06-14T20:31:40;101765.56;;;20.02;30.51
50650;BME280;36621;60.058;30.346;2023-06-14T20:39:13;101769.88;;;19.94;31.58
50650;BME280;36621;60.058;30.346;2023-06-14T20:46:45;101720.66;;;19.50;32.54
50650;BME280;36621;60.058;30.346;2023-06-14T20:54:19;101760.66;;;19.85;33.53
50650;BME280;36621;60.058;30.346;2023-06-14T21:01:53;101636.00;;;18.79;36.03
50650;BME280;36621;60.058;30.346;2023-06-14T21:09:25;101771.03;;;19.52;37.51
50650;BME280;36621;60.058;30.346;2023-06-14T21:17:17;101782.19;;;19.74;35.80
50650;BME280;36621;60.058;30.346;2023-06-14T21:24:49;101756.47;;;19.18;38.15
50650;BME280;36621;60.058;30.346;2023-06-14T21:32:21;101790.19;;;19.20;39.13
50650;BME280;36621;60.058;30.346;2023-06-14T21:39:54;101780.75;;;19.07;40.80
50650;BME280;36621;60.058;30.346;2023-06-14T21:47:26;101772.13;;;18.95;40.79
50650;BME280;36621;60.058;30.346;2023-06-14T21:54:59;101780.00;;;18.88;41.72
50650;BME280;36621;60.058;30.346;2023-06-14T22:02:50;101782.69;;;19.07;40.57
50650;BME280;36621;60.058;30.346;2023-06-14T22:10:41;101781.00;;;18.92;41.23
50650;BME280;36621;60.058;30.346;2023-06-14T22:18:14;101758.69;;;18.36;43.30
50650;BME280;36621;60.058;30.346;2023-06-14T22:25:47;101787.88;;;18.43;43.77
50650;BME280;36621;60.058;30.346;2023-06-14T22:33:19;101781.03;;;18.21;44.26
50650;BME280;36621;60.058;30.346;2023-06-14T22:40:57;101785.28;;;18.13;44.64
50650;BME280;36621;60.058;30.346;2023-06-14T22:48:29;101774.38;;;18.03;45.36
50650;BME280;36621;60.058;30.346;2023-06-14T23:03:52;101701.63;;;17.26;45.78
50650;BME280;36621;60.058;30.346;2023-06-14T23:11:25;101740.47;;;17.54;46.11
50650;BME280;36621;60.058;30.346;2023-06-14T23:18:58;101780.53;;;17.51;45.96
50650;BME280;36621;60.058;30.346;2023-06-14T23:26:31;101781.19;;;17.43;47.05
50650;BME280;36621;60.058;30.346;2023-06-14T23:34:22;101780.06;;;17.68;45.58
50650;BME280;36621;60.058;30.346;2023-06-14T23:41:55;101785.72;;;17.34;47.35
50650;BME280;36621;60.058;30.346;2023-06-14T23:49:29;101773.50;;;17.16;47.63
50650;BME280;36621;60.058;30.346;2023-06-14T23:57:02;101781.78;;;17.16;47.69
